Los Angeles, California
Traffic Map
Current Weather Conditions
Los Angeles, California
Clear
Clear
23°
Feels Like: 23°
Wind Chill: 23° Ceiling: Unl
Heat Index: 23° Visibility: 10mi
Dew Point: 16° Wind: 0mph
Humidity: 66% Direction: ° ()
Pressure: 29.87in Gusts: 0mph
Raw Report DataKCQT 181547Z AUTO 00000KT 10SM CLR 23/16 A2987 RMK AO2 SLP112 T02280161
Traffic Incident Summary
Active as of:
Severity:
Category:
InformationThere was an issue retrieving the traffic information for this location. Please try a different location or try again shortly.
Advertisements
Track Severe Weather on mobile